Chilmark, Massachusetts
Current Conditions -  °F | °C
As of 9:53 PM on Saturday 25 Oct 2014 (Local Time) from KMVY Reporting Station
Overcast Overcast  
Wind Chill: 58°   Ceiling: 10000
Heat Index: 58°   Visibility: 10mi
Dew Point: 51°   Wind: 8mph
Humidity: 78%   Direction: 230°SW
Pressure: 29.6"   Gusts: NA
Location:  41.34°N, 70.75°W
Report Text: KMVY 260153Z 23007KT 10SM SCT080 OVC100 14/11 A2960 RMK AO2 SLP022 T01440106
Loading
Personal Weather Stations






























Interactive Weather Map
Tropical Storm Tracking
New forecast layout! Learn more

10-Day Weather Forecast

Advertisements
Track Severe Weather on mobile